Parker, Colorado
Current Conditions -  °F | °C
As of 6:53 AM on Thursday 29 Jan 2015 (Local Time) from KAPA Reporting Station
Overcast Overcast  
Wind Chill: 36°   Ceiling: 4700
Heat Index: 36°   Visibility: 10mi
Dew Point: 27°   Wind: 3mph
Humidity: 70%   Direction: 10°N
Pressure: 30.46"   Gusts: NA
Location:  39.52°N, 104.76°W
Report Text: KAPA 291353Z 01003KT 10SM BKN047 OVC085 02/M03 A3046 RMK AO2 SLP322 T00221028
Loading
Personal Weather Stations






























Interactive Weather Map New forecast layout! Learn more

10-Day Weather Forecast

Advertisements
Track Severe Weather on mobile